sensor_id;sensor_type;location;lat;lon;timestamp;P1;durP1;ratioP1;P2;durP2;ratioP2
22449;SDS011;11392;57.390;-2.468;2022-09-02T00:03:51;3.00;;;1.50;;
22449;SDS011;11392;57.390;-2.468;2022-09-02T00:06:21;1.95;;;1.58;;
22449;SDS011;11392;57.390;-2.468;2022-09-02T00:08:48;2.35;;;1.48;;
22449;SDS011;11392;57.390;-2.468;2022-09-02T00:11:16;1.65;;;1.55;;
22449;SDS011;11392;57.390;-2.468;2022-09-02T00:13:47;2.55;;;1.50;;
22449;SDS011;11392;57.390;-2.468;2022-09-02T00:16:14;2.00;;;1.73;;
22449;SDS011;11392;57.390;-2.468;2022-09-02T00:18:42;2.72;;;1.50;;
22449;SDS011;11392;57.390;-2.468;2022-09-02T00:21:12;1.92;;;1.65;;
22449;SDS011;11392;57.390;-2.468;2022-09-02T00:23:41;2.28;;;1.83;;
22449;SDS011;11392;57.390;-2.468;2022-09-02T00:26:09;2.37;;;1.80;;
22449;SDS011;11392;57.390;-2.468;2022-09-02T00:28:36;2.45;;;2.10;;
22449;SDS011;11392;57.390;-2.468;2022-09-02T00:31:03;2.25;;;2.05;;
22449;SDS011;11392;57.390;-2.468;2022-09-02T00:33:30;1.95;;;1.70;;
22449;SDS011;11392;57.390;-2.468;2022-09-02T00:35:58;1.83;;;1.62;;
22449;SDS011;11392;57.390;-2.468;2022-09-02T00:38:26;2.45;;;1.42;;
22449;SDS011;11392;57.390;-2.468;2022-09-02T00:40:54;1.90;;;1.35;;
22449;SDS011;11392;57.390;-2.468;2022-09-02T00:43:23;3.62;;;1.50;;
22449;SDS011;11392;57.390;-2.468;2022-09-02T00:46:11;1.87;;;1.62;;
22449;SDS011;11392;57.390;-2.468;2022-09-02T00:48:41;1.73;;;1.62;;
22449;SDS011;11392;57.390;-2.468;2022-09-02T00:51:13;2.35;;;1.95;;
22449;SDS011;11392;57.390;-2.468;2022-09-02T00:53:42;1.95;;;1.75;;
22449;SDS011;11392;57.390;-2.468;2022-09-02T00:56:13;2.60;;;1.90;;
22449;SDS011;11392;57.390;-2.468;2022-09-02T00:58:44;1.60;;;1.50;;
22449;SDS011;11392;57.390;-2.468;2022-09-02T01:01:11;1.70;;;1.60;;
22449;SDS011;11392;57.390;-2.468;2022-09-02T01:03:39;2.10;;;1.80;;
22449;SDS011;11392;57.390;-2.468;2022-09-02T01:06:07;2.08;;;1.40;;
22449;SDS011;11392;57.390;-2.468;2022-09-02T01:08:41;1.58;;;1.48;;
22449;SDS011;11392;57.390;-2.468;2022-09-02T01:11:13;1.70;;;1.58;;
22449;SDS011;11392;57.390;-2.468;2022-09-02T01:13:41;1.92;;;1.50;;
22449;SDS011;11392;57.390;-2.468;2022-09-02T01:16:26;3.65;;;1.62;;
22449;SDS011;11392;57.390;-2.468;2022-09-02T01:18:57;2.20;;;1.80;;
22449;SDS011;11392;57.390;-2.468;2022-09-02T01:21:27;3.03;;;1.98;;
22449;SDS011;11392;57.390;-2.468;2022-09-02T01:23:54;3.25;;;1.50;;
22449;SDS011;11392;57.390;-2.468;2022-09-02T01:26:21;4.47;;;1.90;;
22449;SDS011;11392;57.390;-2.468;2022-09-02T01:28:48;2.40;;;1.83;;
22449;SDS011;11392;57.390;-2.468;2022-09-02T01:31:15;2.25;;;1.48;;
22449;SDS011;11392;57.390;-2.468;2022-09-02T01:33:42;2.35;;;1.90;;
22449;SDS011;11392;57.390;-2.468;2022-09-02T01:36:10;3.40;;;2.00;;
22449;SDS011;11392;57.390;-2.468;2022-09-02T01:38:37;2.78;;;1.90;;
22449;SDS011;11392;57.390;-2.468;2022-09-02T01:41:04;2.20;;;1.70;;
22449;SDS011;11392;57.390;-2.468;2022-09-02T01:43:32;2.10;;;1.90;;
22449;SDS011;11392;57.390;-2.468;2022-09-02T01:45:59;2.20;;;1.85;;
22449;SDS011;11392;57.390;-2.468;2022-09-02T01:48:27;2.97;;;1.83;;
22449;SDS011;11392;57.390;-2.468;2022-09-02T01:50:58;2.25;;;1.90;;
22449;SDS011;11392;57.390;-2.468;2022-09-02T01:53:27;2.42;;;1.73;;
22449;SDS011;11392;57.390;-2.468;2022-09-02T01:55:55;4.03;;;1.90;;
22449;SDS011;11392;57.390;-2.468;2022-09-02T01:58:22;2.65;;;1.62;;
22449;SDS011;11392;57.390;-2.468;2022-09-02T02:00:49;3.37;;;1.73;;
22449;SDS011;11392;57.390;-2.468;2022-09-02T02:03:18;2.00;;;1.80;;
22449;SDS011;11392;57.390;-2.468;2022-09-02T02:05:46;2.08;;;1.50;;
22449;SDS011;11392;57.390;-2.468;2022-09-02T02:08:13;3.20;;;1.65;;
22449;SDS011;11392;57.390;-2.468;2022-09-02T02:10:41;2.00;;;1.90;;
22449;SDS011;11392;57.390;-2.468;2022-09-02T02:13:08;2.30;;;1.70;;
22449;SDS011;11392;57.390;-2.468;2022-09-02T02:15:37;4.47;;;2.47;;
22449;SDS011;11392;57.390;-2.468;2022-09-02T02:18:05;2.40;;;2.20;;
22449;SDS011;11392;57.390;-2.468;2022-09-02T02:20:33;6.45;;;2.58;;
22449;SDS011;11392;57.390;-2.468;2022-09-02T02:23:00;8.40;;;2.28;;
22449;SDS011;11392;57.390;-2.468;2022-09-02T02:25:28;5.00;;;2.00;;
22449;SDS011;11392;57.390;-2.468;2022-09-02T02:27:55;2.15;;;1.60;;
22449;SDS011;11392;57.390;-2.468;2022-09-02T02:30:22;4.18;;;2.00;;
22449;SDS011;11392;57.390;-2.468;2022-09-02T02:32:49;4.53;;;1.90;;
22449;SDS011;11392;57.390;-2.468;2022-09-02T02:35:17;4.97;;;2.40;;
22449;SDS011;11392;57.390;-2.468;2022-09-02T02:37:45;2.22;;;1.90;;
22449;SDS011;11392;57.390;-2.468;2022-09-02T02:40:16;5.72;;;2.12;;
22449;SDS011;11392;57.390;-2.468;2022-09-02T02:42:46;4.20;;;2.22;;
22449;SDS011;11392;57.390;-2.468;2022-09-02T02:45:14;5.65;;;2.10;;
22449;SDS011;11392;57.390;-2.468;2022-09-02T02:47:41;7.32;;;2.05;;
22449;SDS011;11392;57.390;-2.468;2022-09-02T02:50:12;4.05;;;1.75;;
22449;SDS011;11392;57.390;-2.468;2022-09-02T02:52:42;10.07;;;2.08;;
22449;SDS011;11392;57.390;-2.468;2022-09-02T02:55:10;8.18;;;2.17;;
22449;SDS011;11392;57.390;-2.468;2022-09-02T02:57:39;10.95;;;2.40;;
22449;SDS011;11392;57.390;-2.468;2022-09-02T03:00:08;2.25;;;1.55;;
22449;SDS011;11392;57.390;-2.468;2022-09-02T03:02:44;2.00;;;1.85;;
22449;SDS011;11392;57.390;-2.468;2022-09-02T03:05:11;2.00;;;1.70;;
22449;SDS011;11392;57.390;-2.468;2022-09-02T03:07:39;2.20;;;2.00;;
22449;SDS011;11392;57.390;-2.468;2022-09-02T03:10:07;1.90;;;1.70;;
22449;SDS011;11392;57.390;-2.468;2022-09-02T03:12:36;3.05;;;1.95;;
22449;SDS011;11392;57.390;-2.468;2022-09-02T03:15:05;8.75;;;2.78;;
22449;SDS011;11392;57.390;-2.468;2022-09-02T03:17:33;8.60;;;2.72;;
22449;SDS011;11392;57.390;-2.468;2022-09-02T03:20:00;15.43;;;3.17;;
22449;SDS011;11392;57.390;-2.468;2022-09-02T03:22:28;22.02;;;3.35;;
22449;SDS011;11392;57.390;-2.468;2022-09-02T03:24:55;13.25;;;2.22;;
22449;SDS011;11392;57.390;-2.468;2022-09-02T03:27:21;16.98;;;2.60;;
22449;SDS011;11392;57.390;-2.468;2022-09-02T03:29:49;11.52;;;2.15;;
22449;SDS011;11392;57.390;-2.468;2022-09-02T03:32:16;17.05;;;2.35;;
22449;SDS011;11392;57.390;-2.468;2022-09-02T03:34:43;11.38;;;2.15;;
22449;SDS011;11392;57.390;-2.468;2022-09-02T03:37:10;3.17;;;1.60;;
22449;SDS011;11392;57.390;-2.468;2022-09-02T03:39:37;8.70;;;1.95;;
22449;SDS011;11392;57.390;-2.468;2022-09-02T03:42:06;7.93;;;2.10;;
22449;SDS011;11392;57.390;-2.468;2022-09-02T03:44:45;5.45;;;1.60;;
22449;SDS011;11392;57.390;-2.468;2022-09-02T03:47:12;6.40;;;1.90;;
22449;SDS011;11392;57.390;-2.468;2022-09-02T03:49:40;14.20;;;2.78;;
22449;SDS011;11392;57.390;-2.468;2022-09-02T03:52:09;18.83;;;3.00;;
22449;SDS011;11392;57.390;-2.468;2022-09-02T03:54:36;15.23;;;2.58;;
22449;SDS011;11392;57.390;-2.468;2022-09-02T03:57:03;11.63;;;2.67;;
22449;SDS011;11392;57.390;-2.468;2022-09-02T03:59:31;6.75;;;1.92;;
22449;SDS011;11392;57.390;-2.468;2022-09-02T04:01:58;7.20;;;2.17;;
22449;SDS011;11392;57.390;-2.468;2022-09-02T04:04:29;2.12;;;1.90;;
22449;SDS011;11392;57.390;-2.468;2022-09-02T04:06:56;1.80;;;1.70;;
22449;SDS011;11392;57.390;-2.468;2022-09-02T04:09:24;2.30;;;2.10;;
22449;SDS011;11392;57.390;-2.468;2022-09-02T04:11:51;2.15;;;1.52;;
22449;SDS011;11392;57.390;-2.468;2022-09-02T04:14:18;2.15;;;1.73;;
22449;SDS011;11392;57.390;-2.468;2022-09-02T04:16:45;2.10;;;1.90;;
22449;SDS011;11392;57.390;-2.468;2022-09-02T04:19:12;2.12;;;2.00;;
22449;SDS011;11392;57.390;-2.468;2022-09-02T04:21:39;1.80;;;1.70;;
22449;SDS011;11392;57.390;-2.468;2022-09-02T04:24:07;1.92;;;1.83;;
22449;SDS011;11392;57.390;-2.468;2022-09-02T04:26:36;1.90;;;1.80;;
22449;SDS011;11392;57.390;-2.468;2022-09-02T04:29:10;3.80;;;1.83;;
22449;SDS011;11392;57.390;-2.468;2022-09-02T04:31:38;4.32;;;2.75;;
22449;SDS011;11392;57.390;-2.468;2022-09-02T04:34:05;3.72;;;2.40;;
22449;SDS011;11392;57.390;-2.468;2022-09-02T04:36:32;2.97;;;1.75;;
22449;SDS011;11392;57.390;-2.468;2022-09-02T04:38:59;2.50;;;1.90;;
22449;SDS011;11392;57.390;-2.468;2022-09-02T04:41:28;2.50;;;1.90;;
22449;SDS011;11392;57.390;-2.468;2022-09-02T04:43:56;2.25;;;2.05;;
22449;SDS011;11392;57.390;-2.468;2022-09-02T04:46:25;2.90;;;2.05;;
22449;SDS011;11392;57.390;-2.468;2022-09-02T04:49:00;4.00;;;1.95;;
22449;SDS011;11392;57.390;-2.468;2022-09-02T04:51:28;2.03;;;1.80;;
22449;SDS011;11392;57.390;-2.468;2022-09-02T04:53:55;2.37;;;2.08;;
22449;SDS011;11392;57.390;-2.468;2022-09-02T04:56:23;3.65;;;2.40;;
22449;SDS011;11392;57.390;-2.468;2022-09-02T04:58:52;2.05;;;1.75;;
22449;SDS011;11392;57.390;-2.468;2022-09-02T05:01:21;2.80;;;2.53;;
22449;SDS011;11392;57.390;-2.468;2022-09-02T05:03:51;2.33;;;1.65;;
22449;SDS011;11392;57.390;-2.468;2022-09-02T05:06:20;2.70;;;2.50;;
22449;SDS011;11392;57.390;-2.468;2022-09-02T05:08:53;2.33;;;2.05;;
22449;SDS011;11392;57.390;-2.468;2022-09-02T05:11:23;2.37;;;2.08;;
22449;SDS011;11392;57.390;-2.468;2022-09-02T05:13:54;2.28;;;2.17;;
22449;SDS011;11392;57.390;-2.468;2022-09-02T05:16:33;2.65;;;2.03;;
22449;SDS011;11392;57.390;-2.468;2022-09-02T05:19:03;2.83;;;2.22;;
22449;SDS011;11392;57.390;-2.468;2022-09-02T05:21:31;3.50;;;1.83;;
22449;SDS011;11392;57.390;-2.468;2022-09-02T05:23:59;2.15;;;1.95;;
22449;SDS011;11392;57.390;-2.468;2022-09-02T05:26:26;2.20;;;2.00;;
22449;SDS011;11392;57.390;-2.468;2022-09-02T05:28:53;3.05;;;2.10;;
22449;SDS011;11392;57.390;-2.468;2022-09-02T05:31:20;2.53;;;2.30;;
22449;SDS011;11392;57.390;-2.468;2022-09-02T05:33:48;2.58;;;2.33;;
22449;SDS011;11392;57.390;-2.468;2022-09-02T05:36:18;2.40;;;2.03;;
22449;SDS011;11392;57.390;-2.468;2022-09-02T05:38:47;3.25;;;1.87;;
22449;SDS011;11392;57.390;-2.468;2022-09-02T05:41:15;2.17;;;2.00;;
22449;SDS011;11392;57.390;-2.468;2022-09-02T05:43:45;3.53;;;1.95;;
22449;SDS011;11392;57.390;-2.468;2022-09-02T05:46:13;2.22;;;1.95;;
22449;SDS011;11392;57.390;-2.468;2022-09-02T05:48:46;2.40;;;2.08;;
22449;SDS011;11392;57.390;-2.468;2022-09-02T05:54:13;2.10;;;1.90;;
22449;SDS011;11392;57.390;-2.468;2022-09-02T05:56:46;2.80;;;1.87;;
22449;SDS011;11392;57.390;-2.468;2022-09-02T05:59:15;1.95;;;1.70;;
22449;SDS011;11392;57.390;-2.468;2022-09-02T06:01:42;2.80;;;1.92;;
22449;SDS011;11392;57.390;-2.468;2022-09-02T06:04:09;3.35;;;2.12;;
22449;SDS011;11392;57.390;-2.468;2022-09-02T06:06:36;2.05;;;1.85;;
22449;SDS011;11392;57.390;-2.468;2022-09-02T06:09:07;3.12;;;2.00;;
22449;SDS011;11392;57.390;-2.468;2022-09-02T06:11:37;2.87;;;2.00;;
22449;SDS011;11392;57.390;-2.468;2022-09-02T06:14:10;2.70;;;2.20;;
22449;SDS011;11392;57.390;-2.468;2022-09-02T06:16:39;2.00;;;1.85;;
22449;SDS011;11392;57.390;-2.468;2022-09-02T06:19:07;2.30;;;1.95;;
22449;SDS011;11392;57.390;-2.468;2022-09-02T06:21:35;1.80;;;1.70;;
22449;SDS011;11392;57.390;-2.468;2022-09-02T06:24:05;1.98;;;1.85;;
22449;SDS011;11392;57.390;-2.468;2022-09-02T06:26:34;3.60;;;1.98;;
22449;SDS011;11392;57.390;-2.468;2022-09-02T06:29:02;2.15;;;1.83;;
22449;SDS011;11392;57.390;-2.468;2022-09-02T06:31:30;3.50;;;1.80;;
22449;SDS011;11392;57.390;-2.468;2022-09-02T06:34:00;2.60;;;2.03;;
22449;SDS011;11392;57.390;-2.468;2022-09-02T06:36:29;2.28;;;2.00;;
22449;SDS011;11392;57.390;-2.468;2022-09-02T06:38:57;2.17;;;1.98;;
22449;SDS011;11392;57.390;-2.468;2022-09-02T06:41:29;2.20;;;2.00;;
22449;SDS011;11392;57.390;-2.468;2022-09-02T06:44:02;2.80;;;2.00;;
22449;SDS011;11392;57.390;-2.468;2022-09-02T06:46:33;2.70;;;1.98;;
22449;SDS011;11392;57.390;-2.468;2022-09-02T06:49:04;2.37;;;2.00;;
22449;SDS011;11392;57.390;-2.468;2022-09-02T06:51:39;2.35;;;2.10;;
22449;SDS011;11392;57.390;-2.468;2022-09-02T06:54:10;4.07;;;2.08;;
22449;SDS011;11392;57.390;-2.468;2022-09-02T06:56:39;2.20;;;1.80;;
22449;SDS011;11392;57.390;-2.468;2022-09-02T06:59:13;1.98;;;1.87;;
22449;SDS011;11392;57.390;-2.468;2022-09-02T07:01:41;2.37;;;2.17;;
22449;SDS011;11392;57.390;-2.468;2022-09-02T07:04:09;2.42;;;2.05;;
22449;SDS011;11392;57.390;-2.468;2022-09-02T07:06:55;3.50;;;2.65;;
22449;SDS011;11392;57.390;-2.468;2022-09-02T07:09:25;2.40;;;2.20;;
22449;SDS011;11392;57.390;-2.468;2022-09-02T07:12:00;4.18;;;2.80;;
22449;SDS011;11392;57.390;-2.468;2022-09-02T07:14:31;2.30;;;2.08;;
22449;SDS011;11392;57.390;-2.468;2022-09-02T07:17:05;2.83;;;2.33;;
22449;SDS011;11392;57.390;-2.468;2022-09-02T07:19:33;2.17;;;2.00;;
22449;SDS011;11392;57.390;-2.468;2022-09-02T07:22:04;4.07;;;2.12;;
22449;SDS011;11392;57.390;-2.468;2022-09-02T07:24:32;3.92;;;2.72;;
22449;SDS011;11392;57.390;-2.468;2022-09-02T07:26:59;3.42;;;3.12;;
22449;SDS011;11392;57.390;-2.468;2022-09-02T07:29:26;4.87;;;2.53;;
22449;SDS011;11392;57.390;-2.468;2022-09-02T07:31:53;4.50;;;2.83;;
22449;SDS011;11392;57.390;-2.468;2022-09-02T07:34:21;3.85;;;3.05;;
22449;SDS011;11392;57.390;-2.468;2022-09-02T07:36:48;3.87;;;3.30;;
22449;SDS011;11392;57.390;-2.468;2022-09-02T07:39:16;3.45;;;2.62;;
22449;SDS011;11392;57.390;-2.468;2022-09-02T07:41:45;4.97;;;2.10;;
22449;SDS011;11392;57.390;-2.468;2022-09-02T07:44:15;5.25;;;2.60;;
22449;SDS011;11392;57.390;-2.468;2022-09-02T07:46:43;3.78;;;2.72;;
22449;SDS011;11392;57.390;-2.468;2022-09-02T07:49:12;2.80;;;2.50;;
22449;SDS011;11392;57.390;-2.468;2022-09-02T07:51:42;2.58;;;2.37;;
22449;SDS011;11392;57.390;-2.468;2022-09-02T07:54:14;4.10;;;2.58;;
22449;SDS011;11392;57.390;-2.468;2022-09-02T07:56:44;3.67;;;2.90;;
22449;SDS011;11392;57.390;-2.468;2022-09-02T07:59:11;2.53;;;2.33;;
22449;SDS011;11392;57.390;-2.468;2022-09-02T08:01:38;2.90;;;2.62;;
22449;SDS011;11392;57.390;-2.468;2022-09-02T08:04:05;4.30;;;3.12;;
22449;SDS011;11392;57.390;-2.468;2022-09-02T08:06:32;4.40;;;2.75;;
22449;SDS011;11392;57.390;-2.468;2022-09-02T08:09:04;2.75;;;2.55;;
22449;SDS011;11392;57.390;-2.468;2022-09-02T08:11:40;3.37;;;2.20;;
22449;SDS011;11392;57.390;-2.468;2022-09-02T08:14:10;3.33;;;2.62;;
22449;SDS011;11392;57.390;-2.468;2022-09-02T08:16:41;3.75;;;2.90;;
22449;SDS011;11392;57.390;-2.468;2022-09-02T08:19:10;2.97;;;2.37;;
22449;SDS011;11392;57.390;-2.468;2022-09-02T08:21:38;3.67;;;2.35;;
22449;SDS011;11392;57.390;-2.468;2022-09-02T08:24:05;2.78;;;1.90;;
22449;SDS011;11392;57.390;-2.468;2022-09-02T08:26:32;4.00;;;2.30;;
22449;SDS011;11392;57.390;-2.468;2022-09-02T08:29:05;3.70;;;2.35;;
22449;SDS011;11392;57.390;-2.468;2022-09-02T08:31:33;3.58;;;2.10;;
22449;SDS011;11392;57.390;-2.468;2022-09-02T08:34:02;3.87;;;2.30;;
22449;SDS011;11392;57.390;-2.468;2022-09-02T08:36:29;3.37;;;2.30;;
22449;SDS011;11392;57.390;-2.468;2022-09-02T08:38:56;4.47;;;2.30;;
22449;SDS011;11392;57.390;-2.468;2022-09-02T08:41:24;2.80;;;2.50;;
22449;SDS011;11392;57.390;-2.468;2022-09-02T08:43:56;5.25;;;2.12;;
22449;SDS011;11392;57.390;-2.468;2022-09-02T08:46:27;3.92;;;2.30;;
22449;SDS011;11392;57.390;-2.468;2022-09-02T08:49:03;4.62;;;2.53;;
22449;SDS011;11392;57.390;-2.468;2022-09-02T08:54:24;3.47;;;2.50;;
22449;SDS011;11392;57.390;-2.468;2022-09-02T08:56:58;3.75;;;2.60;;
22449;SDS011;11392;57.390;-2.468;2022-09-02T08:59:25;3.53;;;2.70;;
22449;SDS011;11392;57.390;-2.468;2022-09-02T09:02:11;5.37;;;2.60;;
22449;SDS011;11392;57.390;-2.468;2022-09-02T09:05:18;3.42;;;2.72;;
22449;SDS011;11392;57.390;-2.468;2022-09-02T09:16:38;4.95;;;2.75;;
22449;SDS011;11392;57.390;-2.468;2022-09-02T09:19:45;2.85;;;1.90;;
22449;SDS011;11392;57.390;-2.468;2022-09-02T09:22:20;2.87;;;2.28;;
22449;SDS011;11392;57.390;-2.468;2022-09-02T09:24:54;3.28;;;2.37;;
22449;SDS011;11392;57.390;-2.468;2022-09-02T09:27:22;3.45;;;2.45;;
22449;SDS011;11392;57.390;-2.468;2022-09-02T09:29:50;4.03;;;2.67;;
22449;SDS011;11392;57.390;-2.468;2022-09-02T09:45:38;3.62;;;2.53;;
22449;SDS011;11392;57.390;-2.468;2022-09-02T09:53:31;2.67;;;2.47;;
22449;SDS011;11392;57.390;-2.468;2022-09-02T09:56:00;4.80;;;2.80;;
22449;SDS011;11392;57.390;-2.468;2022-09-02T09:58:33;5.47;;;2.50;;
22449;SDS011;11392;57.390;-2.468;2022-09-02T10:01:13;3.60;;;3.28;;
22449;SDS011;11392;57.390;-2.468;2022-09-02T10:03:50;5.85;;;3.20;;
22449;SDS011;11392;57.390;-2.468;2022-09-02T10:08:49;4.53;;;2.40;;
22449;SDS011;11392;57.390;-2.468;2022-09-02T10:11:26;3.45;;;2.22;;
22449;SDS011;11392;57.390;-2.468;2022-09-02T10:13:58;2.70;;;1.87;;
22449;SDS011;11392;57.390;-2.468;2022-09-02T10:16:33;2.70;;;2.20;;
22449;SDS011;11392;57.390;-2.468;2022-09-02T10:19:38;3.92;;;1.77;;
22449;SDS011;11392;57.390;-2.468;2022-09-02T10:42:42;2.92;;;1.08;;
22449;SDS011;11392;57.390;-2.468;2022-09-02T10:58:11;1.23;;;1.10;;
22449;SDS011;11392;57.390;-2.468;2022-09-02T11:00:46;1.52;;;1.25;;
22449;SDS011;11392;57.390;-2.468;2022-09-02T11:03:28;2.00;;;1.10;;
22449;SDS011;11392;57.390;-2.468;2022-09-02T11:14:08;1.80;;;1.00;;
22449;SDS011;11392;57.390;-2.468;2022-09-02T11:16:58;1.10;;;1.00;;
22449;SDS011;11392;57.390;-2.468;2022-09-02T11:19:48;1.37;;;1.12;;
22449;SDS011;11392;57.390;-2.468;2022-09-02T11:25:20;2.17;;;1.40;;
22449;SDS011;11392;57.390;-2.468;2022-09-02T11:30:50;1.33;;;1.10;;
22449;SDS011;11392;57.390;-2.468;2022-09-02T11:33:29;3.17;;;1.30;;
22449;SDS011;11392;57.390;-2.468;2022-09-02T11:36:10;2.72;;;1.37;;
22449;SDS011;11392;57.390;-2.468;2022-09-02T11:39:00;2.10;;;1.12;;
22449;SDS011;11392;57.390;-2.468;2022-09-02T11:58:00;3.95;;;2.15;;
22449;SDS011;11392;57.390;-2.468;2022-09-02T12:00:30;1.62;;;0.90;;
22449;SDS011;11392;57.390;-2.468;2022-09-02T12:06:12;1.00;;;0.90;;
22449;SDS011;11392;57.390;-2.468;2022-09-02T12:14:05;1.23;;;0.88;;
22449;SDS011;11392;57.390;-2.468;2022-09-02T12:16:40;2.37;;;0.85;;
22449;SDS011;11392;57.390;-2.468;2022-09-02T12:21:45;2.42;;;1.08;;
22449;SDS011;11392;57.390;-2.468;2022-09-02T12:24:48;1.05;;;0.75;;
22449;SDS011;11392;57.390;-2.468;2022-09-02T12:27:19;2.40;;;0.90;;
22449;SDS011;11392;57.390;-2.468;2022-09-02T12:30:05;1.42;;;0.80;;
22449;SDS011;11392;57.390;-2.468;2022-09-02T12:40:38;1.62;;;1.20;;
22449;SDS011;11392;57.390;-2.468;2022-09-02T12:43:22;2.62;;;0.70;;
22449;SDS011;11392;57.390;-2.468;2022-09-02T12:45:53;1.17;;;1.05;;
22449;SDS011;11392;57.390;-2.468;2022-09-02T12:52:02;2.55;;;0.95;;
22449;SDS011;11392;57.390;-2.468;2022-09-02T12:54:43;1.62;;;1.12;;
22449;SDS011;11392;57.390;-2.468;2022-09-02T12:57:15;1.37;;;1.00;;
22449;SDS011;11392;57.390;-2.468;2022-09-02T12:59:44;2.03;;;0.85;;
22449;SDS011;11392;57.390;-2.468;2022-09-02T13:02:18;1.35;;;1.10;;
22449;SDS011;11392;57.390;-2.468;2022-09-02T13:10:55;1.40;;;0.65;;
22449;SDS011;11392;57.390;-2.468;2022-09-02T13:13:37;0.90;;;0.80;;
22449;SDS011;11392;57.390;-2.468;2022-09-02T13:24:33;1.95;;;0.90;;
22449;SDS011;11392;57.390;-2.468;2022-09-02T13:33:22;1.60;;;0.73;;
22449;SDS011;11392;57.390;-2.468;2022-09-02T13:35:52;2.03;;;0.70;;
22449;SDS011;11392;57.390;-2.468;2022-09-02T13:38:23;1.58;;;0.77;;
22449;SDS011;11392;57.390;-2.468;2022-09-02T13:40:51;0.60;;;0.60;;
22449;SDS011;11392;57.390;-2.468;2022-09-02T13:43:19;1.58;;;0.95;;
22449;SDS011;11392;57.390;-2.468;2022-09-02T13:45:51;1.98;;;0.70;;
22449;SDS011;11392;57.390;-2.468;2022-09-02T13:48:26;0.93;;;0.73;;
22449;SDS011;11392;57.390;-2.468;2022-09-02T13:51:12;2.47;;;0.90;;
22449;SDS011;11392;57.390;-2.468;2022-09-02T13:53:43;1.45;;;1.20;;
22449;SDS011;11392;57.390;-2.468;2022-09-02T13:56:36;0.90;;;0.90;;
22449;SDS011;11392;57.390;-2.468;2022-09-02T13:59:03;1.33;;;0.93;;
22449;SDS011;11392;57.390;-2.468;2022-09-02T14:01:33;1.70;;;0.80;;
22449;SDS011;11392;57.390;-2.468;2022-09-02T14:04:24;1.20;;;0.80;;
22449;SDS011;11392;57.390;-2.468;2022-09-02T14:06:52;2.00;;;0.80;;
22449;SDS011;11392;57.390;-2.468;2022-09-02T14:09:21;1.00;;;0.90;;
22449;SDS011;11392;57.390;-2.468;2022-09-02T14:11:54;1.17;;;0.90;;
22449;SDS011;11392;57.390;-2.468;2022-09-02T14:14:24;0.80;;;0.80;;
22449;SDS011;11392;57.390;-2.468;2022-09-02T14:16:52;1.00;;;0.90;;
22449;SDS011;11392;57.390;-2.468;2022-09-02T14:19:46;3.05;;;1.15;;
22449;SDS011;11392;57.390;-2.468;2022-09-02T14:22:21;1.10;;;1.00;;
22449;SDS011;11392;57.390;-2.468;2022-09-02T14:24:51;1.75;;;1.25;;
22449;SDS011;11392;57.390;-2.468;2022-09-02T14:27:19;1.77;;;0.90;;
22449;SDS011;11392;57.390;-2.468;2022-09-02T14:29:54;1.08;;;0.80;;
22449;SDS011;11392;57.390;-2.468;2022-09-02T14:32:24;2.58;;;1.00;;
22449;SDS011;11392;57.390;-2.468;2022-09-02T14:37:54;2.67;;;1.08;;
22449;SDS011;11392;57.390;-2.468;2022-09-02T14:40:31;2.03;;;0.98;;
22449;SDS011;11392;57.390;-2.468;2022-09-02T14:43:00;1.62;;;1.30;;
22449;SDS011;11392;57.390;-2.468;2022-09-02T14:48:01;1.02;;;0.95;;
22449;SDS011;11392;57.390;-2.468;2022-09-02T14:50:36;1.48;;;0.90;;
22449;SDS011;11392;57.390;-2.468;2022-09-02T14:53:06;1.87;;;1.10;;
22449;SDS011;11392;57.390;-2.468;2022-09-02T14:58:07;1.33;;;0.70;;
22449;SDS011;11392;57.390;-2.468;2022-09-02T15:00:36;1.20;;;0.95;;
22449;SDS011;11392;57.390;-2.468;2022-09-02T15:03:04;0.98;;;0.80;;
22449;SDS011;11392;57.390;-2.468;2022-09-02T15:05:32;2.00;;;1.15;;
22449;SDS011;11392;57.390;-2.468;2022-09-02T15:07:59;1.05;;;0.90;;
22449;SDS011;11392;57.390;-2.468;2022-09-02T15:10:26;1.73;;;1.05;;
22449;SDS011;11392;57.390;-2.468;2022-09-02T15:12:54;1.35;;;0.90;;
22449;SDS011;11392;57.390;-2.468;2022-09-02T15:15:23;2.28;;;0.90;;
22449;SDS011;11392;57.390;-2.468;2022-09-02T15:17:50;1.62;;;0.93;;
22449;SDS011;11392;57.390;-2.468;2022-09-02T15:20:17;2.50;;;0.82;;
22449;SDS011;11392;57.390;-2.468;2022-09-02T15:22:47;1.37;;;0.70;;
22449;SDS011;11392;57.390;-2.468;2022-09-02T15:25:13;2.45;;;0.70;;
22449;SDS011;11392;57.390;-2.468;2022-09-02T15:27:41;1.10;;;0.80;;
22449;SDS011;11392;57.390;-2.468;2022-09-02T15:30:08;0.65;;;0.60;;
22449;SDS011;11392;57.390;-2.468;2022-09-02T15:32:36;1.73;;;0.80;;
22449;SDS011;11392;57.390;-2.468;2022-09-02T15:35:03;4.12;;;0.80;;
22449;SDS011;11392;57.390;-2.468;2022-09-02T15:37:32;1.05;;;0.68;;
22449;SDS011;11392;57.390;-2.468;2022-09-02T15:40:04;1.23;;;0.60;;
22449;SDS011;11392;57.390;-2.468;2022-09-02T15:42:33;1.45;;;0.82;;
22449;SDS011;11392;57.390;-2.468;2022-09-02T15:45:05;0.80;;;0.80;;
22449;SDS011;11392;57.390;-2.468;2022-09-02T15:47:36;1.10;;;1.00;;
22449;SDS011;11392;57.390;-2.468;2022-09-02T15:50:06;1.62;;;0.98;;
22449;SDS011;11392;57.390;-2.468;2022-09-02T15:52:34;1.80;;;0.80;;
22449;SDS011;11392;57.390;-2.468;2022-09-02T15:55:01;1.00;;;0.80;;
22449;SDS011;11392;57.390;-2.468;2022-09-02T15:57:29;0.93;;;0.80;;
22449;SDS011;11392;57.390;-2.468;2022-09-02T15:59:56;2.03;;;0.77;;
22449;SDS011;11392;57.390;-2.468;2022-09-02T16:02:23;1.55;;;0.80;;
22449;SDS011;11392;57.390;-2.468;2022-09-02T16:04:50;0.93;;;0.93;;
22449;SDS011;11392;57.390;-2.468;2022-09-02T16:07:17;0.80;;;0.73;;
22449;SDS011;11392;57.390;-2.468;2022-09-02T16:09:44;1.20;;;0.93;;
22449;SDS011;11392;57.390;-2.468;2022-09-02T16:12:11;2.12;;;1.12;;
22449;SDS011;11392;57.390;-2.468;2022-09-02T16:14:38;1.27;;;0.80;;
22449;SDS011;11392;57.390;-2.468;2022-09-02T16:17:06;3.40;;;1.40;;
22449;SDS011;11392;57.390;-2.468;2022-09-02T16:19:35;1.45;;;0.98;;
22449;SDS011;11392;57.390;-2.468;2022-09-02T16:22:02;2.47;;;0.80;;
22449;SDS011;11392;57.390;-2.468;2022-09-02T16:24:29;2.35;;;1.02;;
22449;SDS011;11392;57.390;-2.468;2022-09-02T16:26:56;1.35;;;1.00;;
22449;SDS011;11392;57.390;-2.468;2022-09-02T16:29:23;1.37;;;0.85;;
22449;SDS011;11392;57.390;-2.468;2022-09-02T16:31:53;2.35;;;0.88;;
22449;SDS011;11392;57.390;-2.468;2022-09-02T16:34:41;2.33;;;0.93;;
22449;SDS011;11392;57.390;-2.468;2022-09-02T16:37:07;1.05;;;0.95;;
22449;SDS011;11392;57.390;-2.468;2022-09-02T16:39:34;1.23;;;0.90;;
22449;SDS011;11392;57.390;-2.468;2022-09-02T16:42:02;1.20;;;0.90;;
22449;SDS011;11392;57.390;-2.468;2022-09-02T16:44:30;2.97;;;1.08;;
22449;SDS011;11392;57.390;-2.468;2022-09-02T16:46:59;1.67;;;0.80;;
22449;SDS011;11392;57.390;-2.468;2022-09-02T16:49:26;1.10;;;0.82;;
22449;SDS011;11392;57.390;-2.468;2022-09-02T16:51:53;0.98;;;0.95;;
22449;SDS011;11392;57.390;-2.468;2022-09-02T16:54:24;1.98;;;1.05;;
22449;SDS011;11392;57.390;-2.468;2022-09-02T16:56:57;1.80;;;1.05;;
22449;SDS011;11392;57.390;-2.468;2022-09-02T16:59:25;3.05;;;1.70;;
22449;SDS011;11392;57.390;-2.468;2022-09-02T17:01:52;1.48;;;1.00;;
22449;SDS011;11392;57.390;-2.468;2022-09-02T17:04:19;1.17;;;0.77;;
22449;SDS011;11392;57.390;-2.468;2022-09-02T17:06:46;1.45;;;0.88;;
22449;SDS011;11392;57.390;-2.468;2022-09-02T17:09:14;0.70;;;0.70;;
22449;SDS011;11392;57.390;-2.468;2022-09-02T17:11:41;2.42;;;0.95;;
22449;SDS011;11392;57.390;-2.468;2022-09-02T17:14:14;1.17;;;0.95;;
22449;SDS011;11392;57.390;-2.468;2022-09-02T17:16:43;1.05;;;0.95;;
22449;SDS011;11392;57.390;-2.468;2022-09-02T17:19:12;0.70;;;0.70;;
22449;SDS011;11392;57.390;-2.468;2022-09-02T17:21:50;2.08;;;0.98;;
22449;SDS011;11392;57.390;-2.468;2022-09-02T17:24:19;4.28;;;1.00;;
22449;SDS011;11392;57.390;-2.468;2022-09-02T17:26:49;1.87;;;1.00;;